Time;durP1;ratioP1;P1;durP2;ratioP2;P2;SDS_P1;SDS_P2;PMS_P1;PMS_P2;Temp;Humidity;BMP_temperature;BMP_pressure;BME280_temperature;BME280_humidity;BME280_pressure;Samples;Min_cycle;Max_cycle;Signal;HPM_P1;HPM_P2
2021/12/09 00:01:13;;;;;;;;;;;7.20;93.60;;;;;;5060797;28;19928;-62
2021/12/09 00:03:40;;;;;;;;;;;7.20;93.50;;;;;;5063168;28;20388;-63
2021/12/09 00:06:06;;;;;;;;;;;7.20;93.50;;;;;;5065747;28;19924;-63
2021/12/09 00:08:31;;;;;;;;;;;7.10;93.40;;;;;;5047401;28;20311;-63
2021/12/09 00:10:58;;;;;;;;;;;7.10;93.50;;;;;;5047073;28;19919;-63
2021/12/09 00:13:24;;;;;;;;;;;7.10;93.40;;;;;;5065649;28;19904;-63
2021/12/09 00:15:49;;;;;;;;;;;7.10;93.40;;;;;;5048271;28;19916;-63
2021/12/09 00:18:15;;;;;;;;;;;7.10;93.40;;;;;;5065746;28;19919;-63
2021/12/09 00:20:40;;;;;;;;;;;7.10;93.40;;;;;;5063531;28;19909;-61
2021/12/09 00:23:07;;;;;;;;;;;7.10;93.50;;;;;;5052805;28;19916;-62
2021/12/09 00:25:33;;;;;;;;;;;7.00;93.40;;;;;;5063057;28;19919;-63
2021/12/09 00:27:58;;;;;;;;;;;7.10;93.50;;;;;;5043769;28;19912;-62
2021/12/09 00:30:24;;;;;;;;;;;7.00;93.40;;;;;;5060030;28;19917;-63
2021/12/09 00:32:49;;;;;;;;;;;7.00;93.50;;;;;;5044527;28;19908;-64
2021/12/09 00:35:16;;;;;;;;;;;7.00;93.50;;;;;;5061824;28;20421;-61
2021/12/09 00:37:53;;;;;;;;;;;7.00;93.50;;;;;;5043684;28;20245;-60
2021/12/09 00:40:19;;;;;;;;;;;7.00;93.50;;;;;;5062033;28;20263;-64
2021/12/09 00:42:44;;;;;;;;;;;7.00;93.50;;;;;;5045514;28;19919;-64
2021/12/09 00:45:10;;;;;;;;;;;7.00;93.50;;;;;;5061541;28;19920;-61
2021/12/09 00:47:35;;;;;;;;;;;7.00;93.60;;;;;;5041725;28;20271;-61
2021/12/09 00:50:01;;;;;;;;;;;6.90;93.50;;;;;;5061490;28;19908;-64
2021/12/09 00:52:27;;;;;;;;;;;7.00;93.60;;;;;;5060978;28;19956;-63
2021/12/09 00:54:54;;;;;;;;;;;6.90;93.60;;;;;;5045247;28;20347;-64
2021/12/09 00:57:19;;;;;;;;;;;6.90;93.60;;;;;;5043378;28;19943;-63
2021/12/09 00:59:45;;;;;;;;;;;6.90;93.60;;;;;;5060825;28;20363;-64
2021/12/09 01:02:11;;;;;;;;;;;6.90;93.60;;;;;;5060044;28;19951;-63
2021/12/09 01:04:37;;;;;;;;;;;6.90;93.60;;;;;;5061169;28;19935;-64
2021/12/09 01:07:03;;;;;;;;;;;6.90;93.60;;;;;;5044091;28;19916;-62
2021/12/09 01:09:28;;;;;;;;;;;6.90;93.60;;;;;;5043511;28;20385;-62
2021/12/09 01:11:54;;;;;;;;;;;6.90;93.70;;;;;;5044469;28;19909;-60
2021/12/09 01:14:19;;;;;;;;;;;6.90;93.70;;;;;;5060978;28;20097;-62
2021/12/09 01:16:45;;;;;;;;;;;6.90;93.70;;;;;;5059674;28;20297;-61
2021/12/09 01:19:10;;;;;;;;;;;6.90;93.70;;;;;;5060640;28;20260;-63
2021/12/09 01:21:36;;;;;;;;;;;6.90;93.80;;;;;;5062093;28;20106;-65
2021/12/09 01:24:01;;;;;;;;;;;6.80;93.80;;;;;;5060034;28;20330;-62
2021/12/09 01:26:28;;;;;;;;;;;6.90;93.90;;;;;;5041562;28;19970;-64
2021/12/09 01:28:59;;;;;;;;;;;6.80;93.90;;;;;;5043110;28;20320;-63
2021/12/09 01:31:29;;;;;;;;;;;6.80;93.90;;;;;;5045658;28;19920;-64
2021/12/09 01:34:00;;;;;;;;;;;6.80;93.90;;;;;;5060778;28;19916;-61
2021/12/09 01:36:25;;;;;;;;;;;6.80;94.00;;;;;;5042961;28;19908;-61
2021/12/09 01:38:51;;;;;;;;;;;6.80;94.00;;;;;;5058166;28;19962;-61
2021/12/09 01:41:16;;;;;;;;;;;6.80;94.10;;;;;;5043773;28;20383;-62
2021/12/09 01:43:42;;;;;;;;;;;6.70;94.00;;;;;;5058464;28;19959;-62
2021/12/09 01:46:08;;;;;;;;;;;6.70;94.10;;;;;;5044411;28;19963;-63
2021/12/09 01:48:34;;;;;;;;;;;6.70;94.10;;;;;;5060676;28;20265;-62
2021/12/09 01:50:59;;;;;;;;;;;6.80;94.10;;;;;;5059375;28;19916;-62
2021/12/09 01:53:25;;;;;;;;;;;6.70;94.10;;;;;;5046286;28;20294;-64
2021/12/09 01:55:50;;;;;;;;;;;6.70;94.10;;;;;;5058997;28;19952;-61
2021/12/09 01:58:16;;;;;;;;;;;6.70;94.10;;;;;;5061569;28;19995;-62
2021/12/09 02:00:41;;;;;;;;;;;6.70;94.10;;;;;;5060573;28;20360;-62
2021/12/09 02:03:07;;;;;;;;;;;6.70;94.10;;;;;;5058446;28;19965;-62
2021/12/09 02:05:32;;;;;;;;;;;6.70;94.10;;;;;;5043015;28;19916;-65
2021/12/09 02:07:58;;;;;;;;;;;6.70;94.10;;;;;;5024961;28;19908;-63
2021/12/09 02:10:24;;;;;;;;;;;6.70;94.20;;;;;;5037416;28;20062;-64
2021/12/09 02:12:49;;;;;;;;;;;6.70;94.20;;;;;;5029097;28;19916;-64
2021/12/09 02:15:15;;;;;;;;;;;6.70;94.10;;;;;;5042678;28;20379;-62
2021/12/09 02:17:41;;;;;;;;;;;6.70;94.10;;;;;;5060321;28;19947;-61
2021/12/09 02:20:07;;;;;;;;;;;6.70;94.10;;;;;;5042747;28;19924;-63
2021/12/09 02:22:33;;;;;;;;;;;6.70;94.40;;;;;;5043749;28;19912;-64
2021/12/09 02:24:59;;;;;;;;;;;6.70;94.10;;;;;;5061214;28;20406;-62
2021/12/09 02:27:24;;;;;;;;;;;6.70;94.10;;;;;;5057939;28;19912;-62
2021/12/09 02:29:50;;;;;;;;;;;6.70;94.10;;;;;;5046024;28;20356;-63
2021/12/09 02:32:16;;;;;;;;;;;6.60;94.10;;;;;;5059623;28;19916;-61
2021/12/09 02:34:41;;;;;;;;;;;6.60;94.10;;;;;;5043149;28;19944;-62
2021/12/09 02:37:09;;;;;;;;;;;6.60;94.10;;;;;;5043161;28;19913;-64
2021/12/09 02:39:35;;;;;;;;;;;6.60;94.10;;;;;;5063508;28;19908;-65
2021/12/09 02:42:00;;;;;;;;;;;6.60;94.10;;;;;;5046870;28;20297;-62
2021/12/09 02:44:27;;;;;;;;;;;6.60;94.10;;;;;;5063700;28;20110;-65
2021/12/09 02:46:53;;;;;;;;;;;6.60;94.10;;;;;;5061606;28;20072;-62
2021/12/09 02:49:19;;;;;;;;;;;6.50;94.00;;;;;;5046831;28;19947;-62
2021/12/09 02:51:45;;;;;;;;;;;6.60;94.10;;;;;;5048505;28;20378;-61
2021/12/09 02:54:11;;;;;;;;;;;6.60;94.10;;;;;;5046247;28;19927;-62
2021/12/09 02:56:37;;;;;;;;;;;6.60;94.10;;;;;;5046912;28;19927;-60
2021/12/09 02:59:02;;;;;;;;;;;6.60;94.10;;;;;;5061204;28;20769;-63
2021/12/09 03:01:29;;;;;;;;;;;6.50;94.10;;;;;;5051421;28;19913;-60
2021/12/09 03:03:58;;;;;;;;;;;6.50;94.10;;;;;;5064521;28;19927;-61
2021/12/09 03:06:33;;;;;;;;;;;6.50;94.10;;;;;;5063490;28;20000;-61
2021/12/09 03:09:02;;;;;;;;;;;6.50;94.10;;;;;;5061461;28;19955;-62
2021/12/09 03:11:27;;;;;;;;;;;6.50;94.10;;;;;;5044030;28;20049;-63
2021/12/09 03:13:53;;;;;;;;;;;6.50;94.10;;;;;;5043889;28;20351;-63
2021/12/09 03:16:19;;;;;;;;;;;6.50;94.10;;;;;;5062416;28;19908;-62
2021/12/09 03:18:46;;;;;;;;;;;6.50;94.10;;;;;;5065025;28;20498;-64
2021/12/09 03:21:12;;;;;;;;;;;6.50;94.10;;;;;;5044664;28;20268;-61
2021/12/09 03:23:37;;;;;;;;;;;6.50;94.20;;;;;;5045933;28;19912;-63
2021/12/09 03:26:03;;;;;;;;;;;6.50;94.20;;;;;;5044708;28;19912;-61
2021/12/09 03:28:28;;;;;;;;;;;6.50;94.20;;;;;;5044649;28;19924;-63
2021/12/09 03:30:54;;;;;;;;;;;6.50;94.20;;;;;;5033869;28;20073;-63
2021/12/09 03:33:19;;;;;;;;;;;6.50;94.20;;;;;;5066567;28;19963;-62
2021/12/09 03:35:45;;;;;;;;;;;6.50;94.30;;;;;;5045827;28;19905;-61
2021/12/09 03:38:10;;;;;;;;;;;6.50;94.30;;;;;;5063328;28;19908;-61
2021/12/09 03:40:36;;;;;;;;;;;6.70;94.40;;;;;;5063214;28;19982;-63
2021/12/09 03:43:01;;;;;;;;;;;6.50;94.20;;;;;;5047923;28;20370;-63
2021/12/09 03:45:27;;;;;;;;;;;6.50;94.20;;;;;;5031560;28;20618;-63
2021/12/09 03:47:52;;;;;;;;;;;6.40;94.20;;;;;;5062035;28;19908;-63
2021/12/09 03:50:17;;;;;;;;;;;6.50;94.30;;;;;;5063464;28;20352;-62
2021/12/09 03:52:43;;;;;;;;;;;6.40;94.30;;;;;;5046058;28;19915;-61
2021/12/09 03:55:09;;;;;;;;;;;6.50;94.30;;;;;;5047004;28;20005;-61
2021/12/09 03:57:34;;;;;;;;;;;6.50;94.30;;;;;;5063707;28;19912;-63
2021/12/09 03:59:59;;;;;;;;;;;6.50;94.40;;;;;;5051703;28;19912;-62
2021/12/09 04:02:25;;;;;;;;;;;6.50;94.40;;;;;;5045590;28;19931;-62
2021/12/09 04:04:50;;;;;;;;;;;6.50;94.40;;;;;;5063621;28;19920;-61
2021/12/09 04:07:16;;;;;;;;;;;6.50;94.40;;;;;;5043351;28;19917;-61
2021/12/09 04:09:41;;;;;;;;;;;6.50;94.30;;;;;;5044901;28;19909;-62
2021/12/09 04:12:09;;;;;;;;;;;6.50;94.30;;;;;;5046533;28;19927;-62
2021/12/09 04:14:35;;;;;;;;;;;6.50;94.30;;;;;;5057805;28;19935;-62
2021/12/09 04:17:01;;;;;;;;;;;6.50;94.40;;;;;;5060900;28;19993;-61
2021/12/09 04:19:26;;;;;;;;;;;6.50;94.40;;;;;;5048613;28;20438;-62
2021/12/09 04:21:51;;;;;;;;;;;6.50;94.50;;;;;;5062892;28;20011;-61
2021/12/09 04:24:17;;;;;;;;;;;6.50;94.50;;;;;;5067074;28;19984;-61
2021/12/09 04:26:44;;;;;;;;;;;6.50;94.50;;;;;;5061756;28;20299;-60
2021/12/09 04:29:10;;;;;;;;;;;6.50;94.40;;;;;;5047629;28;19908;-61
2021/12/09 04:31:35;;;;;;;;;;;6.50;94.50;;;;;;5043188;28;19990;-61
2021/12/09 04:34:01;;;;;;;;;;;6.50;94.50;;;;;;5044826;28;20335;-60
2021/12/09 04:36:26;;;;;;;;;;;6.50;94.40;;;;;;5045587;28;19916;-61
2021/12/09 04:38:52;;;;;;;;;;;6.50;94.40;;;;;;5042615;28;20409;-61
2021/12/09 04:41:18;;;;;;;;;;;6.50;94.60;;;;;;5060924;28;19955;-61
2021/12/09 04:43:44;;;;;;;;;;;6.50;94.60;;;;;;5043090;28;19951;-61
2021/12/09 04:46:10;;;;;;;;;;;6.50;94.60;;;;;;5059076;28;19919;-61
2021/12/09 04:48:35;;;;;;;;;;;6.50;94.50;;;;;;5062391;28;20515;-60
2021/12/09 04:51:01;;;;;;;;;;;6.40;94.40;;;;;;5043165;28;19999;-61
2021/12/09 04:53:26;;;;;;;;;;;6.40;94.40;;;;;;5045374;28;19935;-61
2021/12/09 04:55:52;;;;;;;;;;;6.50;94.50;;;;;;5061442;28;19943;-61
2021/12/09 04:58:17;;;;;;;;;;;6.40;94.50;;;;;;5060394;28;19999;-61
2021/12/09 05:00:43;;;;;;;;;;;6.40;94.50;;;;;;5061492;28;19908;-60
2021/12/09 05:03:11;;;;;;;;;;;6.40;94.60;;;;;;5062018;28;19916;-61
2021/12/09 05:05:41;;;;;;;;;;;6.40;94.60;;;;;;5043786;28;19983;-60
2021/12/09 05:08:08;;;;;;;;;;;6.40;94.70;;;;;;5044255;28;20562;-61
2021/12/09 05:10:36;;;;;;;;;;;6.40;95.00;;;;;;5046384;28;19912;-60
2021/12/09 05:13:03;;;;;;;;;;;6.40;94.80;;;;;;5044175;28;19987;-61
2021/12/09 05:15:28;;;;;;;;;;;6.40;94.70;;;;;;5063255;28;19912;-61
2021/12/09 05:17:54;;;;;;;;;;;6.40;94.70;;;;;;5045508;28;20411;-61
2021/12/09 05:20:19;;;;;;;;;;;6.40;94.60;;;;;;5061884;28;19924;-61
2021/12/09 05:22:44;;;;;;;;;;;6.40;94.60;;;;;;5044651;28;19983;-61
2021/12/09 05:25:10;;;;;;;;;;;6.30;94.70;;;;;;5043196;28;19912;-61
2021/12/09 05:27:37;;;;;;;;;;;6.40;94.70;;;;;;5044989;28;20390;-60
2021/12/09 05:30:06;;;;;;;;;;;6.40;94.70;;;;;;5062564;28;19909;-61
2021/12/09 05:32:31;;;;;;;;;;;6.40;94.70;;;;;;5045073;28;19962;-60
2021/12/09 05:34:57;;;;;;;;;;;6.30;94.70;;;;;;5061972;28;19913;-61
2021/12/09 05:37:23;;;;;;;;;;;6.30;94.70;;;;;;5061387;28;19908;-61
2021/12/09 05:39:49;;;;;;;;;;;6.30;94.70;;;;;;5062382;28;20496;-61
2021/12/09 05:42:15;;;;;;;;;;;6.30;94.80;;;;;;5044713;28;20290;-60
2021/12/09 05:44:40;;;;;;;;;;;6.30;94.70;;;;;;5044493;28;20286;-61
2021/12/09 05:47:06;;;;;;;;;;;6.30;94.80;;;;;;5044109;28;19928;-61
2021/12/09 05:49:32;;;;;;;;;;;6.30;94.70;;;;;;5059406;28;19909;-60
2021/12/09 05:51:57;;;;;;;;;;;6.30;94.70;;;;;;5061215;28;19984;-60
2021/12/09 05:54:23;;;;;;;;;;;6.40;94.80;;;;;;5063220;28;19947;-60
2021/12/09 05:56:50;;;;;;;;;;;6.40;94.90;;;;;;5043567;28;19973;-61
2021/12/09 05:59:15;;;;;;;;;;;6.30;95.00;;;;;;5060880;28;20701;-61
2021/12/09 06:01:41;;;;;;;;;;;6.30;95.00;;;;;;5028075;28;19918;-61
2021/12/09 06:04:06;;;;;;;;;;;6.30;94.90;;;;;;5061153;28;20003;-61
2021/12/09 06:06:32;;;;;;;;;;;6.30;94.80;;;;;;5046181;28;19916;-61
2021/12/09 06:08:58;;;;;;;;;;;6.30;94.80;;;;;;5061718;28;19923;-61
2021/12/09 06:11:23;;;;;;;;;;;6.30;94.80;;;;;;5044651;28;20376;-61
2021/12/09 06:13:49;;;;;;;;;;;6.30;95.10;;;;;;5045364;28;19931;-60
2021/12/09 06:16:15;;;;;;;;;;;6.30;95.10;;;;;;5058800;28;19916;-61
2021/12/09 06:18:40;;;;;;;;;;;6.30;95.20;;;;;;5066102;28;20348;-61
2021/12/09 06:21:06;;;;;;;;;;;6.30;95.10;;;;;;5050022;28;20434;-61
2021/12/09 06:23:31;;;;;;;;;;;6.30;95.10;;;;;;5065371;28;19926;-61
2021/12/09 06:25:57;;;;;;;;;;;6.30;95.20;;;;;;5063612;28;19920;-60
2021/12/09 06:28:22;;;;;;;;;;;6.30;95.30;;;;;;5061402;28;19908;-61
2021/12/09 06:30:48;;;;;;;;;;;6.40;95.30;;;;;;5064202;28;20282;-60
2021/12/09 06:33:13;;;;;;;;;;;6.30;95.30;;;;;;5064718;28;19919;-61
2021/12/09 06:35:39;;;;;;;;;;;6.30;95.20;;;;;;5055707;28;19904;-60
2021/12/09 06:38:05;;;;;;;;;;;6.40;95.30;;;;;;5044691;28;20007;-62
2021/12/09 06:40:30;;;;;;;;;;;6.30;95.20;;;;;;5064450;28;20302;-60
2021/12/09 06:42:56;;;;;;;;;;;6.30;95.10;;;;;;5062384;28;20138;-61
2021/12/09 06:45:22;;;;;;;;;;;6.30;95.10;;;;;;5063367;28;19961;-60
2021/12/09 06:47:47;;;;;;;;;;;6.30;95.10;;;;;;5054385;28;19912;-61
2021/12/09 06:50:13;;;;;;;;;;;6.30;95.00;;;;;;5046625;28;19916;-61
2021/12/09 06:52:39;;;;;;;;;;;6.30;95.10;;;;;;5047438;28;20002;-61
2021/12/09 06:55:05;;;;;;;;;;;6.30;95.10;;;;;;5062557;28;19984;-61
2021/12/09 06:57:30;;;;;;;;;;;6.40;95.30;;;;;;5040583;28;19912;-61
2021/12/09 06:59:55;;;;;;;;;;;6.40;95.40;;;;;;5047044;28;20007;-60
2021/12/09 07:02:21;;;;;;;;;;;6.40;95.40;;;;;;5049727;28;19908;-61
2021/12/09 07:04:46;;;;;;;;;;;6.30;95.10;;;;;;5040715;28;20251;-61
2021/12/09 07:07:13;;;;;;;;;;;6.30;95.00;;;;;;5057264;28;19929;-60
2021/12/09 07:09:39;;;;;;;;;;;6.30;95.00;;;;;;5039374;28;19931;-61
2021/12/09 07:12:05;;;;;;;;;;;6.30;95.00;;;;;;5039326;28;19920;-61
2021/12/09 07:14:30;;;;;;;;;;;6.30;95.00;;;;;;5047859;28;19920;-61
2021/12/09 07:16:56;;;;;;;;;;;6.30;95.00;;;;;;5031234;28;20328;-61
2021/12/09 07:19:21;;;;;;;;;;;6.30;95.10;;;;;;5043489;28;19909;-61
2021/12/09 07:21:47;;;;;;;;;;;6.30;95.00;;;;;;5055014;28;20131;-61
2021/12/09 07:24:12;;;;;;;;;;;6.30;95.00;;;;;;5039863;28;19928;-61
2021/12/09 07:26:38;;;;;;;;;;;6.30;94.90;;;;;;5040577;28;20261;-61
2021/12/09 07:29:03;;;;;;;;;;;6.30;94.90;;;;;;5041353;28;19921;-60
2021/12/09 07:31:29;;;;;;;;;;;6.30;94.80;;;;;;5041744;28;19940;-61
2021/12/09 07:33:56;;;;;;;;;;;6.30;94.80;;;;;;5056857;28;19917;-61
2021/12/09 07:36:22;;;;;;;;;;;6.30;94.80;;;;;;5050721;28;19927;-61
2021/12/09 07:38:47;;;;;;;;;;;6.30;94.70;;;;;;5037152;28;19913;-61
2021/12/09 07:41:13;;;;;;;;;;;6.30;94.70;;;;;;5033380;28;20300;-60
2021/12/09 07:43:39;;;;;;;;;;;6.30;94.70;;;;;;5057327;28;20005;-61
2021/12/09 07:46:04;;;;;;;;;;;6.30;94.60;;;;;;5039389;28;19928;-60
2021/12/09 07:48:30;;;;;;;;;;;6.30;94.60;;;;;;5040236;28;19908;-61
2021/12/09 07:50:55;;;;;;;;;;;6.30;94.60;;;;;;5038269;28;19908;-61
2021/12/09 07:53:22;;;;;;;;;;;6.20;94.50;;;;;;5039188;28;20063;-61
2021/12/09 07:55:48;;;;;;;;;;;6.30;94.50;;;;;;5022939;28;19917;-61
2021/12/09 07:58:14;;;;;;;;;;;6.30;94.50;;;;;;5035349;28;19924;-61
2021/12/09 08:00:39;;;;;;;;;;;6.20;94.50;;;;;;5040275;28;19920;-61
2021/12/09 08:03:05;;;;;;;;;;;6.20;94.50;;;;;;5041199;28;20280;-61
2021/12/09 08:05:31;;;;;;;;;;;6.20;94.50;;;;;;5053631;28;19924;-61
2021/12/09 08:07:56;;;;;;;;;;;6.20;94.50;;;;;;5034789;28;19917;-61
2021/12/09 08:10:22;;;;;;;;;;;6.20;94.50;;;;;;5029643;28;20240;-61
2021/12/09 08:12:48;;;;;;;;;;;6.20;94.60;;;;;;5055148;28;19916;-62
2021/12/09 08:15:13;;;;;;;;;;;6.20;94.60;;;;;;5037697;28;19924;-62
2021/12/09 08:20:08;;;;;;;;;;;6.30;94.70;;;;;;5038457;28;19944;-61
2021/12/09 08:22:33;;;;;;;;;;;6.30;94.60;;;;;;5041588;28;20253;-62
2021/12/09 08:24:59;;;;;;;;;;;6.30;94.50;;;;;;5023833;28;20010;-61
2021/12/09 08:27:25;;;;;;;;;;;6.30;94.40;;;;;;5051405;28;19917;-62
2021/12/09 08:29:50;;;;;;;;;;;6.30;94.40;;;;;;5053451;28;19923;-61
2021/12/09 08:32:16;;;;;;;;;;;6.30;94.40;;;;;;5053145;28;20325;-62
2021/12/09 08:34:41;;;;;;;;;;;6.30;94.30;;;;;;5039392;28;19952;-61
2021/12/09 08:37:07;;;;;;;;;;;6.30;94.30;;;;;;5053495;28;20364;-62
2021/12/09 08:39:32;;;;;;;;;;;6.30;94.30;;;;;;5046334;28;19982;-62
2021/12/09 08:41:58;;;;;;;;;;;6.30;94.30;;;;;;5033392;28;19923;-62
2021/12/09 08:44:23;;;;;;;;;;;6.30;94.30;;;;;;5030605;28;19912;-62
2021/12/09 08:46:49;;;;;;;;;;;6.30;94.30;;;;;;5024360;28;19928;-62
2021/12/09 08:49:14;;;;;;;;;;;6.30;94.30;;;;;;5051553;28;19912;-61
2021/12/09 08:51:40;;;;;;;;;;;6.30;94.20;;;;;;5036519;28;20170;-62
2021/12/09 08:54:05;;;;;;;;;;;6.30;94.20;;;;;;5049813;28;20280;-61
2021/12/09 08:56:31;;;;;;;;;;;6.30;94.30;;;;;;5034097;28;19944;-62
2021/12/09 08:58:56;;;;;;;;;;;6.30;94.20;;;;;;5045923;28;19924;-61
2021/12/09 09:01:22;;;;;;;;;;;6.30;94.20;;;;;;5025595;28;19921;-61
2021/12/09 09:03:47;;;;;;;;;;;6.30;94.10;;;;;;5050926;28;19948;-61
2021/12/09 09:06:13;;;;;;;;;;;6.30;94.20;;;;;;5029724;28;20209;-61
2021/12/09 09:08:38;;;;;;;;;;;6.20;94.10;;;;;;5018982;28;20285;-62
2021/12/09 09:11:04;;;;;;;;;;;6.30;94.20;;;;;;5035484;28;20015;-62
2021/12/09 09:13:29;;;;;;;;;;;6.30;94.20;;;;;;5041054;28;19974;-61
2021/12/09 09:15:55;;;;;;;;;;;6.30;94.20;;;;;;5027840;28;21085;-62
2021/12/09 09:18:20;;;;;;;;;;;6.30;94.20;;;;;;5024037;28;20602;-61
2021/12/09 09:20:46;;;;;;;;;;;6.30;94.10;;;;;;5038571;28;19920;-61
2021/12/09 09:23:13;;;;;;;;;;;6.30;94.10;;;;;;5014178;28;19925;-62
2021/12/09 09:25:38;;;;;;;;;;;6.30;94.10;;;;;;5050427;28;19924;-62
2021/12/09 09:28:04;;;;;;;;;;;6.30;94.10;;;;;;5037759;28;19962;-62
2021/12/09 09:30:35;;;;;;;;;;;6.30;94.10;;;;;;5034302;28;19920;-62
2021/12/09 09:33:00;;;;;;;;;;;6.30;94.00;;;;;;5037813;28;20423;-62
2021/12/09 09:35:26;;;;;;;;;;;6.30;94.00;;;;;;5037585;28;19927;-63
2021/12/09 09:37:51;;;;;;;;;;;6.40;94.00;;;;;;5033679;28;20577;-61
2021/12/09 09:40:17;;;;;;;;;;;6.40;94.00;;;;;;5034131;28;19935;-62
2021/12/09 09:45:09;;;;;;;;;;;6.40;94.00;;;;;;5052545;28;20007;-62
2021/12/09 09:47:34;;;;;;;;;;;6.40;94.00;;;;;;5048616;28;20011;-61
2021/12/09 09:50:00;;;;;;;;;;;6.40;93.90;;;;;;5020867;28;19954;-61
2021/12/09 09:52:26;;;;;;;;;;;6.40;94.00;;;;;;5046449;28;20316;-62
2021/12/09 09:54:53;;;;;;;;;;;6.40;94.00;;;;;;5040669;28;19912;-61
2021/12/09 09:57:18;;;;;;;;;;;6.40;93.90;;;;;;5057009;28;19960;-62
2021/12/09 09:59:43;;;;;;;;;;;6.40;93.90;;;;;;5056268;28;20021;-61
2021/12/09 10:02:10;;;;;;;;;;;6.40;93.90;;;;;;5042231;28;19919;-61
2021/12/09 10:04:49;;;;;;;;;;;6.50;93.90;;;;;;5040232;28;20071;-60
2021/12/09 10:07:15;;;;;;;;;;;6.50;93.90;;;;;;5050620;28;19920;-61
2021/12/09 10:09:41;;;;;;;;;;;6.50;93.90;;;;;;5042892;28;20261;-61
2021/12/09 10:12:06;;;;;;;;;;;6.40;93.90;;;;;;5041221;28;20019;-62
2021/12/09 10:14:33;;;;;;;;;;;6.50;93.90;;;;;;5042457;28;19915;-62
2021/12/09 10:17:14;;;;;;;;;;;6.40;93.90;;;;;;5060253;28;19921;-62
2021/12/09 10:19:41;;;;;;;;;;;6.50;93.90;;;;;;5044342;28;20375;-62
2021/12/09 10:22:16;;;;;;;;;;;6.50;93.90;;;;;;5042958;28;19916;-62
2021/12/09 10:24:41;;;;;;;;;;;6.50;93.90;;;;;;5040816;28;19927;-62
2021/12/09 10:27:07;;;;;;;;;;;6.50;93.90;;;;;;5057917;28;19921;-61
2021/12/09 10:29:38;;;;;;;;;;;6.50;93.90;;;;;;5039176;28;20465;-61
2021/12/09 10:32:05;;;;;;;;;;;6.50;93.90;;;;;;5055254;28;19944;-62
2021/12/09 10:34:39;;;;;;;;;;;6.50;93.90;;;;;;5055005;28;20011;-60
2021/12/09 10:37:24;;;;;;;;;;;6.50;94.00;;;;;;5035218;28;19917;-62
2021/12/09 10:39:53;;;;;;;;;;;6.60;93.80;;;;;;5041079;28;19962;-61
2021/12/09 10:42:19;;;;;;;;;;;6.60;93.90;;;;;;5052023;28;19921;-61
2021/12/09 10:44:48;;;;;;;;;;;6.60;93.90;;;;;;5036848;28;20352;-61
2021/12/09 10:47:22;;;;;;;;;;;6.60;93.90;;;;;;5055084;28;20005;-62
2021/12/09 10:50:06;;;;;;;;;;;6.70;93.90;;;;;;5051074;28;20015;-62
2021/12/09 10:52:41;;;;;;;;;;;6.70;93.90;;;;;;5025139;28;20136;-60
2021/12/09 10:55:07;;;;;;;;;;;6.60;93.90;;;;;;5034854;28;20536;-61
2021/12/09 10:57:32;;;;;;;;;;;6.70;94.00;;;;;;5044903;28;20027;-62
2021/12/09 11:00:12;;;;;;;;;;;6.70;94.00;;;;;;5032000;28;19923;-62
2021/12/09 11:02:41;;;;;;;;;;;6.70;94.00;;;;;;5056288;28;19921;-61
2021/12/09 11:05:07;;;;;;;;;;;6.70;93.90;;;;;;5040957;28;19967;-62
2021/12/09 11:07:33;;;;;;;;;;;6.70;94.10;;;;;;5053205;28;19925;-61
2021/12/09 11:10:17;;;;;;;;;;;6.70;94.10;;;;;;5037042;28;20015;-61
2021/12/09 11:12:49;;;;;;;;;;;6.70;94.00;;;;;;5039596;28;19916;-62
2021/12/09 11:15:16;;;;;;;;;;;6.80;94.00;;;;;;5038752;28;20077;-62
2021/12/09 11:17:45;;;;;;;;;;;6.80;94.10;;;;;;5054227;28;19962;-62
2021/12/09 11:20:10;;;;;;;;;;;6.80;94.00;;;;;;5056516;28;19921;-60
2021/12/09 11:22:37;;;;;;;;;;;6.80;94.00;;;;;;5041837;28;20001;-61
2021/12/09 11:25:06;;;;;;;;;;;6.80;94.00;;;;;;5039894;28;19915;-60
2021/12/09 11:27:32;;;;;;;;;;;6.90;94.00;;;;;;5018508;28;19920;-61
2021/12/09 11:30:09;;;;;;;;;;;6.90;93.90;;;;;;5040778;28;20253;-61
2021/12/09 11:35:15;;;;;;;;;;;6.90;94.20;;;;;;5056432;28;19913;-62
2021/12/09 11:37:46;;;;;;;;;;;6.90;94.10;;;;;;5042168;28;20016;-61
2021/12/09 11:40:15;;;;;;;;;;;6.90;94.10;;;;;;5039093;28;19921;-62
2021/12/09 11:45:09;;;;;;;;;;;7.00;94.10;;;;;;5055452;28;20335;-62
2021/12/09 11:47:36;;;;;;;;;;;7.00;94.00;;;;;;5037905;28;19987;-61
2021/12/09 11:50:02;;;;;;;;;;;7.10;94.00;;;;;;5054279;28;19915;-61
2021/12/09 11:52:28;;;;;;;;;;;7.20;94.00;;;;;;5040455;28;19916;-61
2021/12/09 11:55:00;;;;;;;;;;;7.10;94.00;;;;;;5059786;28;20007;-61
2021/12/09 11:57:52;;;;;;;;;;;7.20;94.10;;;;;;5048148;28;19917;-61
2021/12/09 12:11:56;;;;;;;;;;;7.10;93.90;;;;;;5055470;28;19920;-61
2021/12/09 12:14:36;;;;;;;;;;;7.10;93.90;;;;;;5059554;28;19916;-62
2021/12/09 12:19:50;;;;;;;;;;;7.10;93.90;;;;;;5057808;28;19924;-62
2021/12/09 12:25:34;;;;;;;;;;;7.20;93.80;;;;;;5041824;28;20003;-62
2021/12/09 12:28:27;;;;;;;;;;;7.10;93.80;;;;;;5037671;28;20010;-61
2021/12/09 12:34:35;;;;;;;;;;;7.10;93.60;;;;;;5054110;28;19919;-62
2021/12/09 12:39:33;;;;;;;;;;;7.10;93.70;;;;;;5039711;28;19916;-62
2021/12/09 12:42:00;;;;;;;;;;;7.10;93.80;;;;;;5014126;28;19909;-62
2021/12/09 12:44:26;;;;;;;;;;;7.10;93.80;;;;;;5051741;28;19923;-60
2021/12/09 12:46:58;;;;;;;;;;;7.10;93.80;;;;;;5055619;28;19921;-61
2021/12/09 12:49:35;;;;;;;;;;;7.10;93.80;;;;;;5053631;28;19928;-61
2021/12/09 12:52:09;;;;;;;;;;;7.00;93.70;;;;;;5039079;28;19908;-62
2021/12/09 12:54:46;;;;;;;;;;;7.10;93.60;;;;;;5052672;28;19909;-63
2021/12/09 12:57:15;;;;;;;;;;;7.10;93.70;;;;;;5054747;28;20138;-61
2021/12/09 12:59:42;;;;;;;;;;;7.10;93.70;;;;;;5021465;28;20334;-61
2021/12/09 13:02:41;;;;;;;;;;;7.10;93.70;;;;;;5035666;28;20019;-62
2021/12/09 13:05:24;;;;;;;;;;;7.10;93.60;;;;;;5051066;28;19926;-61
2021/12/09 13:10:29;;;;;;;;;;;7.10;93.50;;;;;;5033006;28;20003;-61
2021/12/09 13:13:06;;;;;;;;;;;7.10;93.50;;;;;;5038273;28;20856;-61
2021/12/09 13:15:42;;;;;;;;;;;7.20;93.50;;;;;;5054772;28;19982;-61
2021/12/09 13:18:20;;;;;;;;;;;7.20;93.50;;;;;;5041337;28;20531;-61
2021/12/09 13:20:45;;;;;;;;;;;7.20;93.50;;;;;;5037633;28;19956;-62
2021/12/09 13:23:20;;;;;;;;;;;7.20;93.50;;;;;;5038605;28;19948;-61
2021/12/09 13:26:26;;;;;;;;;;;7.20;93.30;;;;;;5040975;28;19921;-61
2021/12/09 13:29:18;;;;;;;;;;;7.20;93.30;;;;;;4957861;28;19948;-61
2021/12/09 13:32:11;;;;;;;;;;;7.20;93.20;;;;;;5011545;28;20089;-61
2021/12/09 13:34:41;;;;;;;;;;;7.20;93.20;;;;;;5033092;28;19923;-61
2021/12/09 13:48:21;;;;;;;;;;;7.20;93.30;;;;;;5046355;28;19927;-60
2021/12/09 13:56:00;;;;;;;;;;;7.20;93.40;;;;;;5046106;28;20475;-62
2021/12/09 13:58:25;;;;;;;;;;;7.30;93.50;;;;;;5034645;28;20439;-61
2021/12/09 14:00:51;;;;;;;;;;;7.30;93.50;;;;;;5053092;28;20019;-61
2021/12/09 14:03:18;;;;;;;;;;;7.40;93.40;;;;;;5019286;28;19912;-61
2021/12/09 14:05:51;;;;;;;;;;;7.30;93.30;;;;;;5021786;28;19956;-61
2021/12/09 14:08:24;;;;;;;;;;;7.40;93.20;;;;;;5056315;28;19942;-61
2021/12/09 14:10:52;;;;;;;;;;;7.40;93.30;;;;;;5039867;28;20409;-62
2021/12/09 14:13:21;;;;;;;;;;;7.40;93.30;;;;;;5056481;28;19920;-61
2021/12/09 14:18:42;;;;;;;;;;;7.40;93.50;;;;;;5055355;28;19923;-61
2021/12/09 14:21:08;;;;;;;;;;;7.40;93.50;;;;;;5041374;28;19916;-61
2021/12/09 14:23:33;;;;;;;;;;;7.40;93.60;;;;;;5056063;28;19912;-62
2021/12/09 14:26:00;;;;;;;;;;;7.40;93.50;;;;;;5056227;28;19916;-61
2021/12/09 14:28:25;;;;;;;;;;;7.40;93.40;;;;;;5040335;28;19940;-61
2021/12/09 14:30:50;;;;;;;;;;;7.50;93.40;;;;;;5039857;28;19931;-61
2021/12/09 14:33:16;;;;;;;;;;;7.40;93.40;;;;;;5057492;28;19916;-61
2021/12/09 14:35:44;;;;;;;;;;;7.40;93.40;;;;;;5061394;28;19972;-61
2021/12/09 14:38:14;;;;;;;;;;;7.50;93.50;;;;;;5060465;28;19920;-61
2021/12/09 14:40:42;;;;;;;;;;;7.40;93.50;;;;;;5043849;28;19916;-62
2021/12/09 14:43:10;;;;;;;;;;;7.50;93.70;;;;;;5042456;28;20242;-61
2021/12/09 14:45:37;;;;;;;;;;;7.40;93.70;;;;;;5059125;28;20240;-60
2021/12/09 14:48:06;;;;;;;;;;;7.50;93.70;;;;;;5045200;28;19912;-61
2021/12/09 14:50:33;;;;;;;;;;;7.50;93.60;;;;;;5027554;28;19916;-61
2021/12/09 14:52:58;;;;;;;;;;;7.50;93.60;;;;;;5054924;28;19965;-60
2021/12/09 14:55:25;;;;;;;;;;;7.50;93.60;;;;;;5042290;28;19916;-61
2021/12/09 14:57:57;;;;;;;;;;;7.50;93.50;;;;;;5042060;28;19916;-61
2021/12/09 15:00:30;;;;;;;;;;;7.50;93.50;;;;;;5057460;28;19912;-62
2021/12/09 15:02:55;;;;;;;;;;;7.50;93.50;;;;;;5022439;28;19913;-61
2021/12/09 15:05:21;;;;;;;;;;;7.50;93.50;;;;;;5037216;28;19917;-61
2021/12/09 15:07:51;;;;;;;;;;;7.50;93.50;;;;;;5034162;28;19923;-62
2021/12/09 15:10:21;;;;;;;;;;;7.50;93.50;;;;;;5017852;28;19916;-61
2021/12/09 15:12:47;;;;;;;;;;;7.50;93.40;;;;;;5034422;28;20019;-61
2021/12/09 15:15:25;;;;;;;;;;;7.50;93.30;;;;;;5033722;28;19987;-61
2021/12/09 15:18:00;;;;;;;;;;;7.50;93.30;;;;;;5038196;28;19957;-61
2021/12/09 15:20:30;;;;;;;;;;;7.50;93.30;;;;;;5051930;28;19921;-61
2021/12/09 15:22:59;;;;;;;;;;;7.50;93.30;;;;;;5049352;28;19917;-60
2021/12/09 15:25:31;;;;;;;;;;;7.50;93.40;;;;;;5036160;28;20364;-61
2021/12/09 15:28:01;;;;;;;;;;;7.50;93.40;;;;;;5037264;28;19913;-61